South San Francisco, California
Current Conditions -  °F | °C
As of 3:56 PM on Sunday 25 Jan 2015 (Local Time) from KSFO Reporting Station
Clear Clear  
Wind Chill: 59°   Ceiling: Unl
Heat Index: 59°   Visibility: 10mi
Dew Point: 50°   Wind: 0mph
Humidity: 72%   Direction: NA
Pressure: 30.02"   Gusts: NA
Location:  37.66°N, 122.41°W
Report Text: KSFO 252356Z 00000KT 10SM CLR 15/10 A3002 RMK AO2 SLP166 T01500100 10172 20106 56019
Loading
Personal Weather Stations






























Interactive Weather Map New forecast layout! Learn more

10-Day Weather Forecast

Advertisements
Track Severe Weather on mobile